To NAV CANADA Home Page Login to a new session Search on AWWS site Feedback and Comments Disclaimer Vers la page française équivalente Tips FAQ What's new on the site To the Forecasts and Observations / NOTAM section To "File a Flight Plan" website Publications and other links Update of the User's profile FIC Telephone Numbers My Weather Data Folder Route Weather Data Regional Weather Data Local Weather Data To the Forecasts and Observations / NOTAM section
Request Generated 05/25/2017 at 01:06:00 UTC . Weather information available at that time is displayed.

METAR/TAF

KUUJJUAQ/QC    

METAR CYVP 250100Z 05006KT 15SM SCT075 BKN100 M02/M07 A3001 RMK
AC3AC2 SLP166=
METAR CYVP 250000Z 06008KT 15SM SCT060 SCT072 BKN240 M01/M06 A3000
RMK SC3AS1CI1 SLP162=
METAR CYVP 242300Z 05009KT 15SM FEW010 FEW034 BKN092 BKN240 01/M06
A2998 RMK SF1SC1AC5CI1 SF TR CI TR SLP157=

TAF CYVP 242338Z 2500/2512 05008KT P6SM SCT030 BKN100 TEMPO 2500/2504
BKN030
FM250400 01005KT P6SM SCT008 BKN025 TEMPO 2504/2512 BKN008 PROB30
2504/2510 2SM BR BKN004
RMK NXT FCST BY 250600Z=
Your time UTC time
Weather data provided by Environment Canada and NAV CANADA